sensor_id;sensor_type;location;lat;lon;timestamp;pressure;altitude;pressure_sealevel;temperature;humidity
36798;BME280;22748;8.426;99.512;2023-12-28T00:00:49;100941.69;;;28.98;nan
36798;BME280;22748;8.426;99.512;2023-12-28T00:03:19;100951.00;;;29.02;nan
36798;BME280;22748;8.426;99.512;2023-12-28T00:05:50;100951.41;;;28.99;nan
36798;BME280;22748;8.426;99.512;2023-12-28T00:08:21;100952.25;;;28.99;nan
36798;BME280;22748;8.426;99.512;2023-12-28T00:10:52;100944.38;;;28.98;nan
36798;BME280;22748;8.426;99.512;2023-12-28T00:13:23;100958.84;;;28.97;nan
36798;BME280;22748;8.426;99.512;2023-12-28T00:15:59;100959.88;;;28.96;nan
36798;BME280;22748;8.426;99.512;2023-12-28T00:18:30;100960.50;;;28.98;nan
36798;BME280;22748;8.426;99.512;2023-12-28T00:21:00;100963.19;;;28.98;nan
36798;BME280;22748;8.426;99.512;2023-12-28T00:23:31;100969.59;;;28.90;nan
36798;BME280;22748;8.426;99.512;2023-12-28T00:26:00;100972.91;;;28.92;nan
36798;BME280;22748;8.426;99.512;2023-12-28T00:28:31;100980.75;;;28.93;nan
36798;BME280;22748;8.426;99.512;2023-12-28T00:31:04;100981.59;;;28.94;nan
36798;BME280;22748;8.426;99.512;2023-12-28T00:33:35;100986.13;;;28.93;nan
36798;BME280;22748;8.426;99.512;2023-12-28T00:36:06;100986.13;;;28.93;nan
36798;BME280;22748;8.426;99.512;2023-12-28T00:38:37;100991.72;;;28.92;nan
36798;BME280;22748;8.426;99.512;2023-12-28T00:41:08;100988.19;;;28.91;nan
36798;BME280;22748;8.426;99.512;2023-12-28T00:43:39;101001.63;;;28.91;nan
36798;BME280;22748;8.426;99.512;2023-12-28T00:46:15;101001.00;;;28.89;nan
36798;BME280;22748;8.426;99.512;2023-12-28T00:48:46;101005.56;;;28.89;nan
36798;BME280;22748;8.426;99.512;2023-12-28T00:51:17;101011.75;;;28.89;nan
36798;BME280;22748;8.426;99.512;2023-12-28T00:53:48;101023.13;;;28.91;nan
36798;BME280;22748;8.426;99.512;2023-12-28T00:56:19;101027.31;;;28.94;nan
36798;BME280;22748;8.426;99.512;2023-12-28T00:58:50;101030.00;;;28.94;nan
36798;BME280;22748;8.426;99.512;2023-12-28T01:01:26;101038.88;;;28.95;nan
36798;BME280;22748;8.426;99.512;2023-12-28T01:03:58;101044.91;;;28.97;nan
36798;BME280;22748;8.426;99.512;2023-12-28T01:06:29;101050.28;;;28.97;nan
36798;BME280;22748;8.426;99.512;2023-12-28T01:09:00;101045.53;;;28.99;nan
36798;BME280;22748;8.426;99.512;2023-12-28T01:11:31;101051.91;;;28.98;nan
36798;BME280;22748;8.426;99.512;2023-12-28T01:14:02;101057.50;;;28.96;nan
36798;BME280;22748;8.426;99.512;2023-12-28T01:16:38;101057.72;;;28.95;nan
36798;BME280;22748;8.426;99.512;2023-12-28T01:19:12;101059.13;;;28.90;nan
36798;BME280;22748;8.426;99.512;2023-12-28T01:21:42;101062.25;;;28.94;nan
36798;BME280;22748;8.426;99.512;2023-12-28T01:24:13;101067.22;;;28.97;nan
36798;BME280;22748;8.426;99.512;2023-12-28T01:26:44;101075.09;;;28.99;nan
36798;BME280;22748;8.426;99.512;2023-12-28T01:29:15;101073.44;;;28.98;nan
36798;BME280;22748;8.426;99.512;2023-12-28T01:31:48;101076.75;;;29.00;nan
36798;BME280;22748;8.426;99.512;2023-12-28T01:34:18;101080.06;;;29.02;nan
36798;BME280;22748;8.426;99.512;2023-12-28T01:36:49;101088.56;;;28.99;nan
36798;BME280;22748;8.426;99.512;2023-12-28T01:39:19;101103.19;;;28.96;nan
36798;BME280;22748;8.426;99.512;2023-12-28T01:41:50;101110.69;;;29.01;nan
36798;BME280;22748;8.426;99.512;2023-12-28T01:44:20;101112.34;;;29.02;nan
36798;BME280;22748;8.426;99.512;2023-12-28T01:46:53;101110.28;;;29.04;nan
36798;BME280;22748;8.426;99.512;2023-12-28T01:49:24;101108.84;;;29.08;nan
36798;BME280;22748;8.426;99.512;2023-12-28T01:51:55;101101.47;;;29.10;nan
36798;BME280;22748;8.426;99.512;2023-12-28T01:54:26;101107.84;;;29.09;nan
36798;BME280;22748;8.426;99.512;2023-12-28T01:56:58;101113.03;;;29.10;nan
36798;BME280;22748;8.426;99.512;2023-12-28T01:59:30;101120.09;;;29.11;nan
36798;BME280;22748;8.426;99.512;2023-12-28T02:02:04;101125.47;;;29.11;nan
36798;BME280;22748;8.426;99.512;2023-12-28T02:04:34;101126.28;;;29.12;nan
36798;BME280;22748;8.426;99.512;2023-12-28T02:07:06;101131.44;;;29.13;nan
36798;BME280;22748;8.426;99.512;2023-12-28T02:09:37;101118.63;;;29.16;nan
36798;BME280;22748;8.426;99.512;2023-12-28T02:12:08;101115.75;;;29.17;nan
36798;BME280;22748;8.426;99.512;2023-12-28T02:14:40;101115.38;;;29.20;nan
36798;BME280;22748;8.426;99.512;2023-12-28T02:17:19;101117.66;;;29.23;nan
36798;BME280;22748;8.426;99.512;2023-12-28T02:19:55;101112.91;;;29.25;nan
36798;BME280;22748;8.426;99.512;2023-12-28T02:22:27;101111.69;;;29.28;nan
36798;BME280;22748;8.426;99.512;2023-12-28T02:25:10;101109.44;;;29.31;nan
36798;BME280;22748;8.426;99.512;2023-12-28T02:27:43;101122.47;;;29.35;nan
36798;BME280;22748;8.426;99.512;2023-12-28T02:30:15;101119.59;;;29.36;nan
36798;BME280;22748;8.426;99.512;2023-12-28T02:32:56;101120.41;;;29.37;nan
36798;BME280;22748;8.426;99.512;2023-12-28T02:35:31;101122.09;;;29.38;nan
36798;BME280;22748;8.426;99.512;2023-12-28T02:38:05;101127.47;;;29.38;nan
36798;BME280;22748;8.426;99.512;2023-12-28T02:40:39;101122.50;;;29.41;nan
36798;BME280;22748;8.426;99.512;2023-12-28T02:43:11;101121.88;;;29.46;nan
36798;BME280;22748;8.426;99.512;2023-12-28T02:45:43;101113.63;;;29.47;nan
36798;BME280;22748;8.426;99.512;2023-12-28T02:48:14;101118.81;;;29.49;nan
36798;BME280;22748;8.426;99.512;2023-12-28T02:50:45;101118.38;;;29.52;nan
36798;BME280;22748;8.426;99.512;2023-12-28T02:53:17;101114.28;;;29.56;nan
36798;BME280;22748;8.426;99.512;2023-12-28T02:55:53;101118.59;;;29.50;nan
36798;BME280;22748;8.426;99.512;2023-12-28T02:58:24;101114.44;;;29.48;nan
36798;BME280;22748;8.426;99.512;2023-12-28T03:00:55;101116.34;;;29.54;nan
36798;BME280;22748;8.426;99.512;2023-12-28T03:03:26;101119.22;;;29.59;nan
36798;BME280;22748;8.426;99.512;2023-12-28T03:05:57;101120.72;;;29.62;nan
36798;BME280;22748;8.426;99.512;2023-12-28T03:08:27;101119.88;;;29.68;nan
36798;BME280;22748;8.426;99.512;2023-12-28T03:11:00;101112.91;;;29.73;nan
36798;BME280;22748;8.426;99.512;2023-12-28T03:13:31;101115.19;;;29.77;nan
36798;BME280;22748;8.426;99.512;2023-12-28T03:16:02;101110.81;;;29.69;nan
36798;BME280;22748;8.426;99.512;2023-12-28T03:18:32;101104.81;;;29.73;nan
36798;BME280;22748;8.426;99.512;2023-12-28T03:21:03;101107.09;;;29.77;nan
36798;BME280;22748;8.426;99.512;2023-12-28T03:23:34;101106.91;;;29.78;nan
36798;BME280;22748;8.426;99.512;2023-12-28T03:26:11;101105.44;;;29.69;nan
36798;BME280;22748;8.426;99.512;2023-12-28T03:28:42;101102.75;;;29.76;nan
36798;BME280;22748;8.426;99.512;2023-12-28T03:31:13;101107.34;;;29.82;nan
36798;BME280;22748;8.426;99.512;2023-12-28T03:33:44;101101.97;;;29.88;nan
36798;BME280;22748;8.426;99.512;2023-12-28T03:36:19;101106.69;;;29.73;nan
36798;BME280;22748;8.426;99.512;2023-12-28T03:38:50;101098.84;;;29.85;nan
36798;BME280;22748;8.426;99.512;2023-12-28T03:41:27;101093.88;;;29.88;nan
36798;BME280;22748;8.426;99.512;2023-12-28T03:43:58;101091.19;;;29.95;nan
36798;BME280;22748;8.426;99.512;2023-12-28T03:46:29;101090.38;;;30.01;nan
36798;BME280;22748;8.426;99.512;2023-12-28T03:48:59;101080.88;;;30.05;nan
36798;BME280;22748;8.426;99.512;2023-12-28T03:51:30;101074.44;;;30.06;nan
36798;BME280;22748;8.426;99.512;2023-12-28T03:54:01;101069.25;;;30.11;nan
36798;BME280;22748;8.426;99.512;2023-12-28T03:56:38;101070.09;;;30.19;nan
36798;BME280;22748;8.426;99.512;2023-12-28T03:59:11;101081.06;;;30.24;nan
36798;BME280;22748;8.426;99.512;2023-12-28T04:01:42;101072.56;;;30.27;nan
36798;BME280;22748;8.426;99.512;2023-12-28T04:04:13;101068.44;;;30.31;nan
36798;BME280;22748;8.426;99.512;2023-12-28T04:06:43;101066.38;;;30.33;nan
36798;BME280;22748;8.426;99.512;2023-12-28T04:09:14;101058.91;;;30.35;nan
36798;BME280;22748;8.426;99.512;2023-12-28T04:11:51;101065.94;;;30.16;nan
36798;BME280;22748;8.426;99.512;2023-12-28T04:14:21;101060.13;;;30.12;nan
36798;BME280;22748;8.426;99.512;2023-12-28T04:16:52;101058.88;;;30.08;nan
36798;BME280;22748;8.426;99.512;2023-12-28T04:19:23;101061.38;;;30.17;nan
36798;BME280;22748;8.426;99.512;2023-12-28T04:21:54;101057.25;;;30.27;nan
36798;BME280;22748;8.426;99.512;2023-12-28T04:24:25;101047.09;;;30.36;nan
36798;BME280;22748;8.426;99.512;2023-12-28T04:27:03;101033.81;;;30.41;nan
36798;BME280;22748;8.426;99.512;2023-12-28T04:29:34;101032.38;;;30.45;nan
36798;BME280;22748;8.426;99.512;2023-12-28T04:32:05;101022.81;;;30.49;nan
36798;BME280;22748;8.426;99.512;2023-12-28T04:34:37;101017.44;;;30.49;nan
36798;BME280;22748;8.426;99.512;2023-12-28T04:37:08;101004.59;;;30.51;nan
36798;BME280;22748;8.426;99.512;2023-12-28T04:39:39;101007.03;;;30.53;nan
36798;BME280;22748;8.426;99.512;2023-12-28T04:42:15;100999.81;;;30.53;nan
36798;BME280;22748;8.426;99.512;2023-12-28T04:44:46;100998.34;;;30.58;nan
36798;BME280;22748;8.426;99.512;2023-12-28T04:47:17;100993.81;;;30.51;nan
36798;BME280;22748;8.426;99.512;2023-12-28T04:49:48;100993.56;;;30.53;nan
36798;BME280;22748;8.426;99.512;2023-12-28T04:52:26;100984.66;;;30.52;nan
36798;BME280;22748;8.426;99.512;2023-12-28T04:54:57;100983.88;;;30.39;nan
36798;BME280;22748;8.426;99.512;2023-12-28T04:57:30;100988.84;;;30.35;nan
36798;BME280;22748;8.426;99.512;2023-12-28T05:00:01;100984.28;;;30.49;nan
36798;BME280;22748;8.426;99.512;2023-12-28T05:02:32;100981.75;;;30.54;nan
36798;BME280;22748;8.426;99.512;2023-12-28T05:05:03;100972.59;;;30.62;nan
36798;BME280;22748;8.426;99.512;2023-12-28T05:07:34;100967.66;;;30.59;nan
36798;BME280;22748;8.426;99.512;2023-12-28T05:10:04;100962.66;;;30.62;nan
36798;BME280;22748;8.426;99.512;2023-12-28T05:12:41;100960.66;;;30.31;nan
36798;BME280;22748;8.426;99.512;2023-12-28T05:15:11;100960.03;;;30.42;nan
36798;BME280;22748;8.426;99.512;2023-12-28T05:17:47;100955.25;;;30.51;nan
36798;BME280;22748;8.426;99.512;2023-12-28T05:20:18;100947.78;;;30.46;nan
36798;BME280;22748;8.426;99.512;2023-12-28T05:22:49;100941.19;;;30.42;nan
36798;BME280;22748;8.426;99.512;2023-12-28T05:25:20;100942.19;;;30.48;nan
36798;BME280;22748;8.426;99.512;2023-12-28T05:27:56;100940.75;;;30.45;nan
36798;BME280;22748;8.426;99.512;2023-12-28T05:30:27;100938.22;;;30.50;nan
36798;BME280;22748;8.426;99.512;2023-12-28T05:32:57;100933.66;;;30.58;nan
36798;BME280;22748;8.426;99.512;2023-12-28T05:35:29;100928.00;;;30.66;nan
36798;BME280;22748;8.426;99.512;2023-12-28T05:38:00;100925.38;;;30.52;nan
36798;BME280;22748;8.426;99.512;2023-12-28T05:40:30;100919.97;;;30.52;nan
36798;BME280;22748;8.426;99.512;2023-12-28T05:43:06;100917.22;;;30.66;nan
36798;BME280;22748;8.426;99.512;2023-12-28T05:45:37;100911.78;;;30.72;nan
36798;BME280;22748;8.426;99.512;2023-12-28T05:48:07;100905.16;;;30.75;nan
36798;BME280;22748;8.426;99.512;2023-12-28T05:50:38;100906.59;;;30.78;nan
36798;BME280;22748;8.426;99.512;2023-12-28T05:53:10;100903.25;;;30.82;nan
36798;BME280;22748;8.426;99.512;2023-12-28T05:55:42;100907.22;;;30.86;nan
36798;BME280;22748;8.426;99.512;2023-12-28T05:58:18;100902.88;;;30.72;nan
36798;BME280;22748;8.426;99.512;2023-12-28T06:00:49;100902.72;;;30.67;nan
36798;BME280;22748;8.426;99.512;2023-12-28T06:03:20;100896.69;;;30.71;nan
36798;BME280;22748;8.426;99.512;2023-12-28T06:05:55;100893.94;;;30.78;nan
36798;BME280;22748;8.426;99.512;2023-12-28T06:08:26;100895.84;;;30.71;nan
36798;BME280;22748;8.426;99.512;2023-12-28T06:10:57;100891.31;;;30.65;nan
36798;BME280;22748;8.426;99.512;2023-12-28T06:13:30;100893.16;;;30.71;nan
36798;BME280;22748;8.426;99.512;2023-12-28T06:16:01;100891.06;;;30.73;nan
36798;BME280;22748;8.426;99.512;2023-12-28T06:18:32;100883.38;;;30.76;nan
36798;BME280;22748;8.426;99.512;2023-12-28T06:21:03;100878.81;;;30.77;nan
36798;BME280;22748;8.426;99.512;2023-12-28T06:23:34;100866.38;;;30.76;nan
36798;BME280;22748;8.426;99.512;2023-12-28T06:26:08;100873.91;;;30.61;nan
36798;BME280;22748;8.426;99.512;2023-12-28T06:28:44;100874.09;;;30.66;nan
36798;BME280;22748;8.426;99.512;2023-12-28T06:31:15;100858.31;;;30.69;nan
36798;BME280;22748;8.426;99.512;2023-12-28T06:33:47;100855.69;;;30.56;nan
36798;BME280;22748;8.426;99.512;2023-12-28T06:36:19;100856.34;;;30.51;nan
36798;BME280;22748;8.426;99.512;2023-12-28T06:38:49;100851.13;;;30.57;nan
36798;BME280;22748;8.426;99.512;2023-12-28T06:41:19;100853.59;;;30.65;nan
36798;BME280;22748;8.426;99.512;2023-12-28T06:43:57;100845.50;;;30.65;nan
36798;BME280;22748;8.426;99.512;2023-12-28T06:46:28;100850.22;;;30.69;nan
36798;BME280;22748;8.426;99.512;2023-12-28T06:48:59;100846.19;;;30.53;nan
36798;BME280;22748;8.426;99.512;2023-12-28T06:51:30;100838.44;;;30.64;nan
36798;BME280;22748;8.426;99.512;2023-12-28T06:54:00;100826.47;;;30.60;nan
36798;BME280;22748;8.426;99.512;2023-12-28T06:56:31;100827.47;;;30.59;nan
36798;BME280;22748;8.426;99.512;2023-12-28T06:59:08;100825.41;;;30.61;nan
36798;BME280;22748;8.426;99.512;2023-12-28T07:01:39;100812.09;;;30.66;nan
36798;BME280;22748;8.426;99.512;2023-12-28T07:04:11;100813.31;;;30.70;nan
36798;BME280;22748;8.426;99.512;2023-12-28T07:06:42;100814.53;;;30.74;nan
36798;BME280;22748;8.426;99.512;2023-12-28T07:09:12;100807.88;;;30.76;nan
36798;BME280;22748;8.426;99.512;2023-12-28T07:11:43;100805.41;;;30.75;nan
36798;BME280;22748;8.426;99.512;2023-12-28T07:14:19;100807.06;;;30.76;nan
36798;BME280;22748;8.426;99.512;2023-12-28T07:16:50;100791.19;;;30.61;nan
36798;BME280;22748;8.426;99.512;2023-12-28T07:19:21;100792.19;;;30.67;nan
36798;BME280;22748;8.426;99.512;2023-12-28T07:21:51;100784.75;;;30.62;nan
36798;BME280;22748;8.426;99.512;2023-12-28T07:24:22;100786.53;;;30.43;nan
36798;BME280;22748;8.426;99.512;2023-12-28T07:26:53;100769.28;;;30.44;nan
36798;BME280;22748;8.426;99.512;2023-12-28T07:29:29;100760.53;;;30.55;nan
36798;BME280;22748;8.426;99.512;2023-12-28T07:32:00;100763.63;;;30.59;nan
36798;BME280;22748;8.426;99.512;2023-12-28T07:34:31;100775.25;;;30.60;nan
36798;BME280;22748;8.426;99.512;2023-12-28T07:37:02;100772.81;;;30.51;nan
36798;BME280;22748;8.426;99.512;2023-12-28T07:39:33;100764.09;;;30.49;nan
36798;BME280;22748;8.426;99.512;2023-12-28T07:42:02;100752.88;;;30.52;nan
36798;BME280;22748;8.426;99.512;2023-12-28T07:44:39;100747.41;;;30.66;nan
36798;BME280;22748;8.426;99.512;2023-12-28T07:47:10;100753.22;;;30.63;nan
36798;BME280;22748;8.426;99.512;2023-12-28T07:49:42;100764.00;;;30.63;nan
36798;BME280;22748;8.426;99.512;2023-12-28T07:52:12;100756.09;;;30.68;nan
36798;BME280;22748;8.426;99.512;2023-12-28T07:54:42;100748.88;;;30.30;nan
36798;BME280;22748;8.426;99.512;2023-12-28T07:57:13;100750.72;;;30.36;nan
36798;BME280;22748;8.426;99.512;2023-12-28T07:59:50;100754.66;;;30.27;nan
36798;BME280;22748;8.426;99.512;2023-12-28T08:02:21;100748.88;;;30.30;nan
36798;BME280;22748;8.426;99.512;2023-12-28T08:04:52;100745.53;;;30.34;nan
36798;BME280;22748;8.426;99.512;2023-12-28T08:07:22;100751.38;;;30.25;nan
36798;BME280;22748;8.426;99.512;2023-12-28T08:09:53;100756.72;;;30.38;nan
36798;BME280;22748;8.426;99.512;2023-12-28T08:12:23;100760.69;;;30.29;nan
36798;BME280;22748;8.426;99.512;2023-12-28T08:15:00;100758.88;;;30.16;nan
36798;BME280;22748;8.426;99.512;2023-12-28T08:17:30;100764.75;;;29.93;nan
36798;BME280;22748;8.426;99.512;2023-12-28T08:20:01;100763.13;;;29.79;nan
36798;BME280;22748;8.426;99.512;2023-12-28T08:22:32;100760.97;;;30.01;nan
36798;BME280;22748;8.426;99.512;2023-12-28T08:25:02;100762.69;;;29.95;nan
36798;BME280;22748;8.426;99.512;2023-12-28T08:27:33;100754.38;;;30.03;nan
36798;BME280;22748;8.426;99.512;2023-12-28T08:30:10;100762.63;;;30.08;nan
36798;BME280;22748;8.426;99.512;2023-12-28T08:32:41;100766.25;;;29.82;nan
36798;BME280;22748;8.426;99.512;2023-12-28T08:35:12;100771.88;;;29.54;nan
36798;BME280;22748;8.426;99.512;2023-12-28T08:37:42;100762.53;;;29.77;nan
36798;BME280;22748;8.426;99.512;2023-12-28T08:40:13;100761.00;;;29.94;nan
36798;BME280;22748;8.426;99.512;2023-12-28T08:42:44;100757.03;;;30.10;nan
36798;BME280;22748;8.426;99.512;2023-12-28T08:45:20;100756.25;;;29.96;nan
36798;BME280;22748;8.426;99.512;2023-12-28T08:47:51;100752.28;;;30.05;nan
36798;BME280;22748;8.426;99.512;2023-12-28T08:50:22;100752.63;;;30.15;nan
36798;BME280;22748;8.426;99.512;2023-12-28T08:52:53;100746.56;;;30.27;nan
36798;BME280;22748;8.426;99.512;2023-12-28T08:55:24;100743.66;;;30.35;nan
36798;BME280;22748;8.426;99.512;2023-12-28T08:57:55;100735.78;;;30.40;nan
36798;BME280;22748;8.426;99.512;2023-12-28T09:00:32;100732.63;;;30.43;nan
36798;BME280;22748;8.426;99.512;2023-12-28T09:03:03;100723.94;;;30.41;nan
36798;BME280;22748;8.426;99.512;2023-12-28T09:05:36;100719.75;;;30.45;nan
36798;BME280;22748;8.426;99.512;2023-12-28T09:08:07;100717.69;;;30.47;nan
36798;BME280;22748;8.426;99.512;2023-12-28T09:10:36;100728.63;;;30.52;nan
36798;BME280;22748;8.426;99.512;2023-12-28T09:13:14;100718.03;;;30.58;nan
36798;BME280;22748;8.426;99.512;2023-12-28T09:15:52;100721.41;;;30.46;nan
36798;BME280;22748;8.426;99.512;2023-12-28T09:18:23;100736.72;;;30.52;nan
36798;BME280;22748;8.426;99.512;2023-12-28T09:20:54;100725.88;;;30.59;nan
36798;BME280;22748;8.426;99.512;2023-12-28T09:23:24;100724.59;;;30.62;nan
36798;BME280;22748;8.426;99.512;2023-12-28T09:25:55;100727.97;;;30.57;nan
36798;BME280;22748;8.426;99.512;2023-12-28T09:28:26;100731.75;;;30.49;nan
36798;BME280;22748;8.426;99.512;2023-12-28T09:30:57;100724.91;;;30.53;nan
36798;BME280;22748;8.426;99.512;2023-12-28T09:33:28;100726.31;;;30.56;nan
36798;BME280;22748;8.426;99.512;2023-12-28T09:35:59;100724.59;;;30.62;nan
36798;BME280;22748;8.426;99.512;2023-12-28T09:38:29;100726.63;;;30.73;nan
36798;BME280;22748;8.426;99.512;2023-12-28T09:41:10;100727.00;;;30.76;nan
36798;BME280;22748;8.426;99.512;2023-12-28T09:43:51;100720.88;;;30.63;nan
36798;BME280;22748;8.426;99.512;2023-12-28T09:46:30;100723.75;;;30.68;nan
36798;BME280;22748;8.426;99.512;2023-12-28T09:49:01;100720.38;;;30.72;nan
36798;BME280;22748;8.426;99.512;2023-12-28T09:51:32;100725.56;;;30.74;nan
36798;BME280;22748;8.426;99.512;2023-12-28T09:54:03;100716.94;;;30.65;nan
36798;BME280;22748;8.426;99.512;2023-12-28T09:56:35;100712.34;;;30.66;nan
36798;BME280;22748;8.426;99.512;2023-12-28T09:59:07;100718.28;;;30.74;nan
36798;BME280;22748;8.426;99.512;2023-12-28T10:01:42;100716.44;;;30.75;nan
36798;BME280;22748;8.426;99.512;2023-12-28T10:04:14;100721.44;;;30.71;nan
36798;BME280;22748;8.426;99.512;2023-12-28T10:06:45;100722.06;;;30.73;nan
36798;BME280;22748;8.426;99.512;2023-12-28T10:09:16;100727.59;;;30.79;nan
36798;BME280;22748;8.426;99.512;2023-12-28T10:11:48;100734.06;;;30.78;nan
36798;BME280;22748;8.426;99.512;2023-12-28T10:14:20;100725.34;;;30.75;nan
36798;BME280;22748;8.426;99.512;2023-12-28T10:16:53;100723.47;;;30.76;nan
36798;BME280;22748;8.426;99.512;2023-12-28T10:19:25;100727.00;;;30.76;nan
36798;BME280;22748;8.426;99.512;2023-12-28T10:21:56;100725.50;;;30.81;nan
36798;BME280;22748;8.426;99.512;2023-12-28T10:24:27;100727.28;;;30.68;nan
36798;BME280;22748;8.426;99.512;2023-12-28T10:26:58;100741.13;;;30.72;nan
36798;BME280;22748;8.426;99.512;2023-12-28T10:29:29;100733.66;;;30.74;nan
36798;BME280;22748;8.426;99.512;2023-12-28T10:32:03;100731.78;;;30.74;nan
36798;BME280;22748;8.426;99.512;2023-12-28T10:34:33;100738.00;;;30.75;nan
36798;BME280;22748;8.426;99.512;2023-12-28T10:37:05;100735.06;;;30.76;nan
36798;BME280;22748;8.426;99.512;2023-12-28T10:39:38;100745.66;;;30.78;nan
36798;BME280;22748;8.426;99.512;2023-12-28T10:42:10;100741.53;;;30.75;nan
36798;BME280;22748;8.426;99.512;2023-12-28T10:44:45;100746.72;;;30.77;nan
36798;BME280;22748;8.426;99.512;2023-12-28T10:47:19;100746.38;;;30.67;nan
36798;BME280;22748;8.426;99.512;2023-12-28T10:49:53;100750.28;;;30.71;nan
36798;BME280;22748;8.426;99.512;2023-12-28T10:52:28;100751.50;;;30.75;nan
36798;BME280;22748;8.426;99.512;2023-12-28T10:55:15;100758.97;;;30.73;nan
36798;BME280;22748;8.426;99.512;2023-12-28T10:57:57;100764.00;;;30.63;nan
36798;BME280;22748;8.426;99.512;2023-12-28T11:00:32;100767.31;;;30.65;nan
36798;BME280;22748;8.426;99.512;2023-12-28T11:03:12;100759.41;;;30.70;nan
36798;BME280;22748;8.426;99.512;2023-12-28T11:05:46;100760.63;;;30.74;nan
36798;BME280;22748;8.426;99.512;2023-12-28T11:08:20;100763.31;;;30.74;nan
36798;BME280;22748;8.426;99.512;2023-12-28T11:10:52;100763.09;;;30.75;nan
36798;BME280;22748;8.426;99.512;2023-12-28T11:13:24;100762.28;;;30.75;nan
36798;BME280;22748;8.426;99.512;2023-12-28T11:15:55;100758.53;;;30.76;nan
36798;BME280;22748;8.426;99.512;2023-12-28T11:18:33;100759.59;;;30.75;nan
36798;BME280;22748;8.426;99.512;2023-12-28T11:21:04;100757.50;;;30.77;nan
36798;BME280;22748;8.426;99.512;2023-12-28T11:23:35;100752.94;;;30.78;nan
36798;BME280;22748;8.426;99.512;2023-12-28T11:26:16;100751.03;;;30.78;nan
36798;BME280;22748;8.426;99.512;2023-12-28T11:28:48;100758.53;;;30.76;nan
36798;BME280;22748;8.426;99.512;2023-12-28T11:31:19;100755.44;;;30.72;nan
36798;BME280;22748;8.426;99.512;2023-12-28T11:33:57;100771.44;;;30.67;nan
36798;BME280;22748;8.426;99.512;2023-12-28T11:36:35;100761.47;;;30.68;nan
36798;BME280;22748;8.426;99.512;2023-12-28T11:39:08;100764.78;;;30.70;nan
36798;BME280;22748;8.426;99.512;2023-12-28T11:41:39;100761.88;;;30.71;nan
36798;BME280;22748;8.426;99.512;2023-12-28T11:44:13;100762.91;;;30.70;nan
36798;BME280;22748;8.426;99.512;2023-12-28T11:46:46;100771.84;;;30.71;nan
36798;BME280;22748;8.426;99.512;2023-12-28T11:49:26;100764.78;;;30.70;nan
36798;BME280;22748;8.426;99.512;2023-12-28T11:51:58;100766.47;;;30.71;nan
36798;BME280;22748;8.426;99.512;2023-12-28T11:54:29;100765.59;;;30.70;nan
36798;BME280;22748;8.426;99.512;2023-12-28T11:56:59;100756.09;;;30.68;nan
36798;BME280;22748;8.426;99.512;2023-12-28T11:59:31;100773.94;;;30.69;nan
36798;BME280;22748;8.426;99.512;2023-12-28T12:02:02;100779.69;;;30.72;nan
36798;BME280;22748;8.426;99.512;2023-12-28T12:04:41;100773.69;;;30.70;nan
36798;BME280;22748;8.426;99.512;2023-12-28T12:07:11;100779.69;;;30.72;nan
36798;BME280;22748;8.426;99.512;2023-12-28T12:09:42;100789.44;;;30.73;nan
36798;BME280;22748;8.426;99.512;2023-12-28T12:12:15;100792.75;;;30.75;nan
36798;BME280;22748;8.426;99.512;2023-12-28T12:14:47;100794.03;;;30.73;nan
36798;BME280;22748;8.426;99.512;2023-12-28T12:17:18;100798.81;;;30.71;nan
36798;BME280;22748;8.426;99.512;2023-12-28T12:19:56;100801.72;;;30.69;nan
36798;BME280;22748;8.426;99.512;2023-12-28T12:22:27;100805.84;;;30.72;nan
36798;BME280;22748;8.426;99.512;2023-12-28T12:24:59;100805.22;;;30.70;nan
36798;BME280;22748;8.426;99.512;2023-12-28T12:27:31;100806.28;;;30.69;nan
36798;BME280;22748;8.426;99.512;2023-12-28T12:30:03;100812.69;;;30.68;nan
36798;BME280;22748;8.426;99.512;2023-12-28T12:32:35;100808.97;;;30.69;nan
36798;BME280;22748;8.426;99.512;2023-12-28T12:35:17;100805.66;;;30.67;nan
36798;BME280;22748;8.426;99.512;2023-12-28T12:37:49;100810.25;;;30.66;nan
36798;BME280;22748;8.426;99.512;2023-12-28T12:40:19;100811.28;;;30.65;nan
36798;BME280;22748;8.426;99.512;2023-12-28T12:42:54;100810.44;;;30.65;nan
36798;BME280;22748;8.426;99.512;2023-12-28T12:45:25;100814.16;;;30.64;nan
36798;BME280;22748;8.426;99.512;2023-12-28T12:47:57;100821.03;;;30.66;nan
36798;BME280;22748;8.426;99.512;2023-12-28T12:50:33;100825.88;;;30.51;nan
36798;BME280;22748;8.426;99.512;2023-12-28T12:53:06;100829.91;;;30.28;nan
36798;BME280;22748;8.426;99.512;2023-12-28T12:55:37;100821.78;;;30.35;nan
36798;BME280;22748;8.426;99.512;2023-12-28T12:58:11;100839.81;;;30.41;nan
36798;BME280;22748;8.426;99.512;2023-12-28T13:00:46;100852.44;;;30.47;nan
36798;BME280;22748;8.426;99.512;2023-12-28T13:03:17;100860.06;;;30.50;nan
36798;BME280;22748;8.426;99.512;2023-12-28T13:05:54;100849.28;;;30.50;nan
36798;BME280;22748;8.426;99.512;2023-12-28T13:08:25;100860.91;;;30.51;nan
36798;BME280;22748;8.426;99.512;2023-12-28T13:10:56;100865.47;;;30.50;nan
36798;BME280;22748;8.426;99.512;2023-12-28T13:13:27;100864.44;;;30.51;nan
36798;BME280;22748;8.426;99.512;2023-12-28T13:15:59;100861.75;;;30.51;nan
36798;BME280;22748;8.426;99.512;2023-12-28T13:18:37;100872.50;;;30.51;nan
36798;BME280;22748;8.426;99.512;2023-12-28T13:21:21;100872.50;;;30.51;nan
36798;BME280;22748;8.426;99.512;2023-12-28T13:23:52;100874.16;;;30.52;nan
36798;BME280;22748;8.426;99.512;2023-12-28T13:26:25;100876.84;;;30.52;nan
36798;BME280;22748;8.426;99.512;2023-12-28T13:28:55;100869.81;;;30.51;nan
36798;BME280;22748;8.426;99.512;2023-12-28T13:31:30;100871.69;;;30.51;nan
36798;BME280;22748;8.426;99.512;2023-12-28T13:34:02;100876.84;;;30.52;nan
36798;BME280;22748;8.426;99.512;2023-12-28T13:36:36;100883.50;;;30.50;nan